sensor_id;sensor_type;location;lat;lon;timestamp;pressure;altitude;pressure_sealevel;temperature;humidity
35023;BME280;21214;44.912;8.204;2023-03-04T00:00:18;99908.34;;;6.03;100.00
35023;BME280;21214;44.912;8.204;2023-03-04T00:02:43;99906.47;;;6.05;100.00
35023;BME280;21214;44.912;8.204;2023-03-04T00:05:09;99907.50;;;6.15;100.00
35023;BME280;21214;44.912;8.204;2023-03-04T00:07:34;99908.53;;;6.26;100.00
35023;BME280;21214;44.912;8.204;2023-03-04T00:09:59;99908.09;;;6.32;100.00
35023;BME280;21214;44.912;8.204;2023-03-04T00:12:25;99915.53;;;6.38;100.00
35023;BME280;21214;44.912;8.204;2023-03-04T00:14:51;99917.72;;;6.44;100.00
35023;BME280;21214;44.912;8.204;2023-03-04T00:17:16;99920.00;;;6.48;100.00
35023;BME280;21214;44.912;8.204;2023-03-04T00:19:42;99914.91;;;6.47;100.00
35023;BME280;21214;44.912;8.204;2023-03-04T00:22:07;99915.41;;;6.52;100.00
35023;BME280;21214;44.912;8.204;2023-03-04T00:24:32;99918.91;;;6.40;100.00
35023;BME280;21214;44.912;8.204;2023-03-04T00:26:59;99922.25;;;6.42;100.00
35023;BME280;21214;44.912;8.204;2023-03-04T00:29:24;99918.56;;;6.44;100.00
35023;BME280;21214;44.912;8.204;2023-03-04T00:31:49;99917.00;;;6.42;100.00
35023;BME280;21214;44.912;8.204;2023-03-04T00:34:15;99921.94;;;6.46;100.00
35023;BME280;21214;44.912;8.204;2023-03-04T00:36:40;99925.38;;;6.47;100.00
35023;BME280;21214;44.912;8.204;2023-03-04T00:39:09;99923.19;;;6.41;100.00
35023;BME280;21214;44.912;8.204;2023-03-04T00:41:34;99926.97;;;6.37;100.00
35023;BME280;21214;44.912;8.204;2023-03-04T00:44:01;99931.78;;;6.43;100.00
35023;BME280;21214;44.912;8.204;2023-03-04T00:46:26;99928.88;;;6.35;100.00
35023;BME280;21214;44.912;8.204;2023-03-04T00:48:51;99929.28;;;6.41;100.00
35023;BME280;21214;44.912;8.204;2023-03-04T00:51:17;99930.72;;;6.45;100.00
35023;BME280;21214;44.912;8.204;2023-03-04T00:53:42;99938.69;;;6.44;100.00
35023;BME280;21214;44.912;8.204;2023-03-04T00:56:07;99929.91;;;6.32;100.00
35023;BME280;21214;44.912;8.204;2023-03-04T00:58:33;99929.28;;;6.29;100.00
35023;BME280;21214;44.912;8.204;2023-03-04T01:00:58;99933.91;;;6.12;100.00
35023;BME280;21214;44.912;8.204;2023-03-04T01:03:23;99931.16;;;6.01;100.00
35023;BME280;21214;44.912;8.204;2023-03-04T01:05:50;99935.81;;;6.10;100.00
35023;BME280;21214;44.912;8.204;2023-03-04T01:08:16;99937.25;;;6.14;100.00
35023;BME280;21214;44.912;8.204;2023-03-04T01:10:41;99920.28;;;6.07;100.00
35023;BME280;21214;44.912;8.204;2023-03-04T01:13:06;99923.22;;;6.15;100.00
35023;BME280;21214;44.912;8.204;2023-03-04T01:15:32;99921.34;;;6.18;100.00
35023;BME280;21214;44.912;8.204;2023-03-04T01:17:57;99928.22;;;6.18;100.00
35023;BME280;21214;44.912;8.204;2023-03-04T01:20:23;99916.53;;;6.11;100.00
35023;BME280;21214;44.912;8.204;2023-03-04T01:22:48;99915.34;;;6.15;100.00
35023;BME280;21214;44.912;8.204;2023-03-04T01:25:14;99913.16;;;6.09;100.00
35023;BME280;21214;44.912;8.204;2023-03-04T01:27:39;99907.50;;;6.03;100.00
35023;BME280;21214;44.912;8.204;2023-03-04T01:30:04;99899.31;;;6.07;100.00
35023;BME280;21214;44.912;8.204;2023-03-04T01:32:30;99900.91;;;5.97;100.00
35023;BME280;21214;44.912;8.204;2023-03-04T01:34:55;99905.81;;;6.02;100.00
35023;BME280;21214;44.912;8.204;2023-03-04T01:37:21;99897.00;;;5.90;100.00
35023;BME280;21214;44.912;8.204;2023-03-04T01:39:47;99894.06;;;5.82;100.00
35023;BME280;21214;44.912;8.204;2023-03-04T01:42:19;99899.88;;;5.87;100.00
35023;BME280;21214;44.912;8.204;2023-03-04T01:44:45;99897.13;;;6.01;100.00
35023;BME280;21214;44.912;8.204;2023-03-04T01:47:11;99887.38;;;6.03;100.00
35023;BME280;21214;44.912;8.204;2023-03-04T01:49:36;99893.03;;;5.97;100.00
35023;BME280;21214;44.912;8.204;2023-03-04T01:52:02;99887.34;;;5.78;100.00
35023;BME280;21214;44.912;8.204;2023-03-04T01:54:27;99880.47;;;5.77;100.00
35023;BME280;21214;44.912;8.204;2023-03-04T01:56:53;99883.38;;;5.85;100.00
35023;BME280;21214;44.912;8.204;2023-03-04T01:59:20;99873.66;;;5.87;100.00
35023;BME280;21214;44.912;8.204;2023-03-04T02:01:53;99883.28;;;5.87;100.00
35023;BME280;21214;44.912;8.204;2023-03-04T02:04:20;99881.72;;;5.97;100.00
35023;BME280;21214;44.912;8.204;2023-03-04T02:06:46;99884.44;;;5.95;100.00
35023;BME280;21214;44.912;8.204;2023-03-04T02:09:12;99880.88;;;5.96;100.00
35023;BME280;21214;44.912;8.204;2023-03-04T02:11:39;99870.81;;;5.90;100.00
35023;BME280;21214;44.912;8.204;2023-03-04T02:14:05;99871.44;;;5.81;100.00
35023;BME280;21214;44.912;8.204;2023-03-04T02:16:30;99871.03;;;5.74;100.00
35023;BME280;21214;44.912;8.204;2023-03-04T02:18:56;99872.47;;;5.78;100.00
35023;BME280;21214;44.912;8.204;2023-03-04T02:21:28;99872.91;;;5.85;100.00
35023;BME280;21214;44.912;8.204;2023-03-04T02:26:26;99872.38;;;5.80;100.00
35023;BME280;21214;44.912;8.204;2023-03-04T02:28:54;99866.81;;;5.72;100.00
35023;BME280;21214;44.912;8.204;2023-03-04T02:33:52;99863.91;;;5.76;100.00
35023;BME280;21214;44.912;8.204;2023-03-04T02:36:18;99867.66;;;5.85;100.00
35023;BME280;21214;44.912;8.204;2023-03-04T02:38:44;99868.09;;;5.92;100.00
35023;BME280;21214;44.912;8.204;2023-03-04T02:41:12;99867.16;;;5.93;100.00
35023;BME280;21214;44.912;8.204;2023-03-04T02:43:39;99857.72;;;5.90;100.00
35023;BME280;21214;44.912;8.204;2023-03-04T02:46:04;99858.13;;;5.84;100.00
35023;BME280;21214;44.912;8.204;2023-03-04T02:48:30;99865.56;;;5.77;100.00
35023;BME280;21214;44.912;8.204;2023-03-04T02:50:55;99866.41;;;5.78;100.00
35023;BME280;21214;44.912;8.204;2023-03-04T02:53:21;99875.22;;;5.77;100.00
35023;BME280;21214;44.912;8.204;2023-03-04T02:55:47;99867.88;;;5.82;100.00
35023;BME280;21214;44.912;8.204;2023-03-04T02:58:13;99861.47;;;5.86;100.00
35023;BME280;21214;44.912;8.204;2023-03-04T03:00:39;99863.69;;;5.80;100.00
35023;BME280;21214;44.912;8.204;2023-03-04T03:03:05;99862.00;;;5.78;100.00
35023;BME280;21214;44.912;8.204;2023-03-04T03:05:34;99863.06;;;5.76;100.00
35023;BME280;21214;44.912;8.204;2023-03-04T03:08:00;99861.56;;;5.72;100.00
35023;BME280;21214;44.912;8.204;2023-03-04T03:10:26;99851.84;;;5.74;100.00
35023;BME280;21214;44.912;8.204;2023-03-04T03:12:51;99859.94;;;5.71;100.00
35023;BME280;21214;44.912;8.204;2023-03-04T03:15:18;99854.47;;;5.61;100.00
35023;BME280;21214;44.912;8.204;2023-03-04T03:17:44;99861.59;;;5.59;100.00
35023;BME280;21214;44.912;8.204;2023-03-04T03:20:10;99858.13;;;5.59;100.00
35023;BME280;21214;44.912;8.204;2023-03-04T03:22:36;99856.47;;;5.58;100.00
35023;BME280;21214;44.912;8.204;2023-03-04T03:25:01;99858.25;;;5.57;100.00
35023;BME280;21214;44.912;8.204;2023-03-04T03:27:27;99857.81;;;5.51;100.00
35023;BME280;21214;44.912;8.204;2023-03-04T03:29:53;99864.31;;;5.58;100.00
35023;BME280;21214;44.912;8.204;2023-03-04T03:32:18;99864.31;;;5.58;100.00
35023;BME280;21214;44.912;8.204;2023-03-04T03:34:44;99853.19;;;5.54;100.00
35023;BME280;21214;44.912;8.204;2023-03-04T03:37:09;99862.28;;;5.49;100.00
35023;BME280;21214;44.912;8.204;2023-03-04T03:39:34;99856.34;;;5.47;100.00
35023;BME280;21214;44.912;8.204;2023-03-04T03:42:00;99857.19;;;5.47;100.00
35023;BME280;21214;44.912;8.204;2023-03-04T03:44:25;99857.59;;;5.41;100.00
35023;BME280;21214;44.912;8.204;2023-03-04T03:46:50;99861.59;;;5.47;100.00
35023;BME280;21214;44.912;8.204;2023-03-04T03:49:16;99862.19;;;5.38;100.00
35023;BME280;21214;44.912;8.204;2023-03-04T03:51:41;99857.75;;;5.25;100.00
35023;BME280;21214;44.912;8.204;2023-03-04T03:54:06;99863.31;;;5.21;100.00
35023;BME280;21214;44.912;8.204;2023-03-04T03:56:32;99856.72;;;5.15;100.00
35023;BME280;21214;44.912;8.204;2023-03-04T03:58:57;99855.78;;;5.16;100.00
35023;BME280;21214;44.912;8.204;2023-03-04T04:01:23;99858.47;;;5.15;100.00
35023;BME280;21214;44.912;8.204;2023-03-04T04:03:49;99860.25;;;5.14;100.00
35023;BME280;21214;44.912;8.204;2023-03-04T04:06:14;99860.06;;;5.17;100.00
35023;BME280;21214;44.912;8.204;2023-03-04T04:08:39;99855.91;;;5.27;100.00
35023;BME280;21214;44.912;8.204;2023-03-04T04:11:05;99858.72;;;5.37;100.00
35023;BME280;21214;44.912;8.204;2023-03-04T04:13:30;99854.44;;;5.23;100.00
35023;BME280;21214;44.912;8.204;2023-03-04T04:15:55;99850.00;;;5.11;100.00
35023;BME280;21214;44.912;8.204;2023-03-04T04:18:21;99851.41;;;4.90;100.00
35023;BME280;21214;44.912;8.204;2023-03-04T04:20:47;99855.38;;;4.95;100.00
35023;BME280;21214;44.912;8.204;2023-03-04T04:23:13;99852.50;;;5.00;100.00
35023;BME280;21214;44.912;8.204;2023-03-04T04:25:38;99851.88;;;5.09;100.00
35023;BME280;21214;44.912;8.204;2023-03-04T04:28:03;99844.25;;;5.06;100.00
35023;BME280;21214;44.912;8.204;2023-03-04T04:30:29;99836.81;;;5.00;100.00
35023;BME280;21214;44.912;8.204;2023-03-04T04:32:54;99847.25;;;5.00;100.00
35023;BME280;21214;44.912;8.204;2023-03-04T04:35:20;99850.81;;;4.99;100.00
35023;BME280;21214;44.912;8.204;2023-03-04T04:37:45;99855.59;;;4.92;100.00
35023;BME280;21214;44.912;8.204;2023-03-04T04:40:11;99856.97;;;4.71;100.00
35023;BME280;21214;44.912;8.204;2023-03-04T04:42:36;99849.44;;;4.67;100.00
35023;BME280;21214;44.912;8.204;2023-03-04T04:45:02;99849.81;;;4.61;100.00
35023;BME280;21214;44.912;8.204;2023-03-04T04:47:27;99842.88;;;4.47;100.00
35023;BME280;21214;44.912;8.204;2023-03-04T04:49:53;99848.72;;;4.50;100.00
35023;BME280;21214;44.912;8.204;2023-03-04T04:52:18;99843.91;;;4.44;100.00
35023;BME280;21214;44.912;8.204;2023-03-04T04:54:43;99848.72;;;4.50;100.00
35023;BME280;21214;44.912;8.204;2023-03-04T04:57:09;99843.41;;;4.52;100.00
35023;BME280;21214;44.912;8.204;2023-03-04T04:59:34;99844.28;;;4.38;100.00
35023;BME280;21214;44.912;8.204;2023-03-04T05:01:59;99845.56;;;4.45;100.00
35023;BME280;21214;44.912;8.204;2023-03-04T05:04:25;99844.66;;;4.46;100.00
35023;BME280;21214;44.912;8.204;2023-03-04T05:06:50;99843.41;;;4.52;100.00
35023;BME280;21214;44.912;8.204;2023-03-04T05:09:15;99829.50;;;4.51;100.00
35023;BME280;21214;44.912;8.204;2023-03-04T05:11:41;99844.06;;;4.56;100.00
35023;BME280;21214;44.912;8.204;2023-03-04T05:14:06;99840.50;;;4.57;100.00
35023;BME280;21214;44.912;8.204;2023-03-04T05:16:31;99847.34;;;4.45;100.00
35023;BME280;21214;44.912;8.204;2023-03-04T05:18:57;99850.22;;;4.54;100.00
35023;BME280;21214;44.912;8.204;2023-03-04T05:21:22;99854.06;;;4.49;100.00
35023;BME280;21214;44.912;8.204;2023-03-04T05:23:48;99847.44;;;4.43;100.00
35023;BME280;21214;44.912;8.204;2023-03-04T05:26:14;99847.81;;;4.37;100.00
35023;BME280;21214;44.912;8.204;2023-03-04T05:28:40;99846.91;;;4.24;100.00
35023;BME280;21214;44.912;8.204;2023-03-04T05:31:05;99852.34;;;4.21;100.00
35023;BME280;21214;44.912;8.204;2023-03-04T05:33:31;99852.81;;;4.28;100.00
35023;BME280;21214;44.912;8.204;2023-03-04T05:35:56;99842.81;;;4.34;100.00
35023;BME280;21214;44.912;8.204;2023-03-04T05:38:22;99854.72;;;4.38;100.00
35023;BME280;21214;44.912;8.204;2023-03-04T05:40:47;99854.56;;;4.41;100.00
35023;BME280;21214;44.912;8.204;2023-03-04T05:43:13;99855.81;;;4.48;100.00
35023;BME280;21214;44.912;8.204;2023-03-04T05:45:38;99848.13;;;4.33;100.00
35023;BME280;21214;44.912;8.204;2023-03-04T05:48:04;99844.50;;;4.35;100.00
35023;BME280;21214;44.912;8.204;2023-03-04T05:50:30;99851.75;;;4.30;100.00
35023;BME280;21214;44.912;8.204;2023-03-04T05:52:56;99849.53;;;4.24;100.00
35023;BME280;21214;44.912;8.204;2023-03-04T05:55:21;99847.88;;;4.23;100.00
35023;BME280;21214;44.912;8.204;2023-03-04T05:57:47;99851.97;;;4.27;100.00
35023;BME280;21214;44.912;8.204;2023-03-04T06:00:13;99849.06;;;4.32;100.00
35023;BME280;21214;44.912;8.204;2023-03-04T06:02:39;99852.34;;;4.35;100.00
35023;BME280;21214;44.912;8.204;2023-03-04T06:05:04;99855.66;;;4.37;100.00
35023;BME280;21214;44.912;8.204;2023-03-04T06:07:30;99863.72;;;4.34;100.00
35023;BME280;21214;44.912;8.204;2023-03-04T06:09:55;99865.78;;;4.29;100.00
35023;BME280;21214;44.912;8.204;2023-03-04T06:12:20;99860.94;;;4.23;100.00
35023;BME280;21214;44.912;8.204;2023-03-04T06:14:46;99859.84;;;3.99;100.00
35023;BME280;21214;44.912;8.204;2023-03-04T06:17:11;99864.28;;;3.97;100.00
35023;BME280;21214;44.912;8.204;2023-03-04T06:19:37;99864.50;;;3.94;100.00
35023;BME280;21214;44.912;8.204;2023-03-04T06:22:03;99866.16;;;3.95;100.00
35023;BME280;21214;44.912;8.204;2023-03-04T06:24:29;99866.56;;;3.89;100.00
35023;BME280;21214;44.912;8.204;2023-03-04T06:26:54;99868.56;;;3.84;100.00
35023;BME280;21214;44.912;8.204;2023-03-04T06:29:20;99875.47;;;3.85;100.00
35023;BME280;21214;44.912;8.204;2023-03-04T06:31:45;99870.09;;;3.88;100.00
35023;BME280;21214;44.912;8.204;2023-03-04T06:34:11;99870.72;;;3.91;100.00
35023;BME280;21214;44.912;8.204;2023-03-04T06:36:36;99875.50;;;3.99;100.00
35023;BME280;21214;44.912;8.204;2023-03-04T06:39:02;99871.00;;;4.01;100.00
35023;BME280;21214;44.912;8.204;2023-03-04T06:41:28;99878.94;;;3.99;100.00
35023;BME280;21214;44.912;8.204;2023-03-04T06:43:53;99881.53;;;3.85;100.00
35023;BME280;21214;44.912;8.204;2023-03-04T06:46:19;99891.50;;;3.64;100.00
35023;BME280;21214;44.912;8.204;2023-03-04T06:48:44;99888.34;;;3.74;100.00
35023;BME280;21214;44.912;8.204;2023-03-04T06:51:11;99887.81;;;3.83;100.00
35023;BME280;21214;44.912;8.204;2023-03-04T06:53:37;99883.34;;;3.99;100.00
35023;BME280;21214;44.912;8.204;2023-03-04T06:56:03;99892.53;;;3.90;100.00
35023;BME280;21214;44.912;8.204;2023-03-04T06:58:29;99893.41;;;4.05;100.00
35023;BME280;21214;44.912;8.204;2023-03-04T07:00:54;99891.81;;;4.02;100.00
35023;BME280;21214;44.912;8.204;2023-03-04T07:03:19;99888.34;;;4.02;100.00
35023;BME280;21214;44.912;8.204;2023-03-04T07:05:45;99896.75;;;4.07;100.00
35023;BME280;21214;44.912;8.204;2023-03-04T07:08:10;99897.88;;;4.17;100.00
35023;BME280;21214;44.912;8.204;2023-03-04T07:10:36;99893.84;;;4.26;100.00
35023;BME280;21214;44.912;8.204;2023-03-04T07:13:01;99895.16;;;4.33;100.00
35023;BME280;21214;44.912;8.204;2023-03-04T07:15:27;99898.41;;;4.36;100.00
35023;BME280;21214;44.912;8.204;2023-03-04T07:17:52;99901.59;;;4.41;100.00
35023;BME280;21214;44.912;8.204;2023-03-04T07:20:18;99898.22;;;4.39;100.00
35023;BME280;21214;44.912;8.204;2023-03-04T07:22:43;99903.91;;;4.46;100.00
35023;BME280;21214;44.912;8.204;2023-03-04T07:25:08;99908.75;;;4.52;100.00
35023;BME280;21214;44.912;8.204;2023-03-04T07:27:34;99906.06;;;4.39;100.00
35023;BME280;21214;44.912;8.204;2023-03-04T07:29:59;99907.44;;;4.45;100.00
35023;BME280;21214;44.912;8.204;2023-03-04T07:32:25;99903.97;;;4.59;100.00
35023;BME280;21214;44.912;8.204;2023-03-04T07:34:52;99907.88;;;4.66;100.00
35023;BME280;21214;44.912;8.204;2023-03-04T07:37:17;99897.84;;;4.86;100.00
35023;BME280;21214;44.912;8.204;2023-03-04T07:39:44;99898.44;;;5.04;100.00
35023;BME280;21214;44.912;8.204;2023-03-04T07:42:09;99904.53;;;5.17;100.00
35023;BME280;21214;44.912;8.204;2023-03-04T07:44:38;99897.34;;;5.33;100.00
35023;BME280;21214;44.912;8.204;2023-03-04T07:47:04;99900.84;;;5.47;100.00
35023;BME280;21214;44.912;8.204;2023-03-04T07:49:29;99896.84;;;5.54;100.00
35023;BME280;21214;44.912;8.204;2023-03-04T07:51:55;99897.19;;;5.62;100.00
35023;BME280;21214;44.912;8.204;2023-03-04T07:54:21;99901.28;;;5.78;100.00
35023;BME280;21214;44.912;8.204;2023-03-04T07:56:46;99900.28;;;5.94;100.00
35023;BME280;21214;44.912;8.204;2023-03-04T07:59:12;99901.75;;;6.10;100.00
35023;BME280;21214;44.912;8.204;2023-03-04T08:01:37;99903.72;;;6.20;100.00
35023;BME280;21214;44.912;8.204;2023-03-04T08:04:04;99901.81;;;6.34;100.00
35023;BME280;21214;44.912;8.204;2023-03-04T08:06:30;99908.72;;;6.48;100.00
35023;BME280;21214;44.912;8.204;2023-03-04T08:08:57;99911.91;;;6.64;100.00
35023;BME280;21214;44.912;8.204;2023-03-04T08:11:23;99911.75;;;6.78;100.00
35023;BME280;21214;44.912;8.204;2023-03-04T08:13:48;99910.03;;;6.90;100.00
35023;BME280;21214;44.912;8.204;2023-03-04T08:16:15;99908.31;;;7.02;100.00
35023;BME280;21214;44.912;8.204;2023-03-04T08:18:44;99912.66;;;7.14;100.00
35023;BME280;21214;44.912;8.204;2023-03-04T08:21:10;99902.34;;;7.23;100.00
35023;BME280;21214;44.912;8.204;2023-03-04T08:23:36;99897.84;;;7.36;100.00
35023;BME280;21214;44.912;8.204;2023-03-04T08:26:05;99905.78;;;7.48;100.00
35023;BME280;21214;44.912;8.204;2023-03-04T08:28:30;99904.22;;;7.56;100.00
35023;BME280;21214;44.912;8.204;2023-03-04T08:30:56;99898.53;;;7.62;100.00
35023;BME280;21214;44.912;8.204;2023-03-04T08:33:21;99905.22;;;7.66;100.00
35023;BME280;21214;44.912;8.204;2023-03-04T08:35:46;99896.16;;;7.70;100.00
35023;BME280;21214;44.912;8.204;2023-03-04T08:38:12;99894.97;;;7.86;100.00
35023;BME280;21214;44.912;8.204;2023-03-04T08:40:37;99895.44;;;7.79;100.00
35023;BME280;21214;44.912;8.204;2023-03-04T08:43:02;99891.53;;;7.85;100.00
35023;BME280;21214;44.912;8.204;2023-03-04T08:45:28;99889.25;;;7.92;100.00
35023;BME280;21214;44.912;8.204;2023-03-04T08:47:53;99892.84;;;7.91;100.00
35023;BME280;21214;44.912;8.204;2023-03-04T08:50:18;99887.13;;;7.97;100.00
35023;BME280;21214;44.912;8.204;2023-03-04T08:52:44;99887.59;;;8.02;100.00
35023;BME280;21214;44.912;8.204;2023-03-04T08:55:10;99877.34;;;8.10;100.00
35023;BME280;21214;44.912;8.204;2023-03-04T08:57:35;99879.97;;;8.21;100.00
35023;BME280;21214;44.912;8.204;2023-03-04T09:00:00;99871.13;;;8.22;100.00
35023;BME280;21214;44.912;8.204;2023-03-04T09:02:26;99866.69;;;8.22;100.00
35023;BME280;21214;44.912;8.204;2023-03-04T09:04:51;99864.44;;;8.29;100.00
35023;BME280;21214;44.912;8.204;2023-03-04T09:07:16;99870.41;;;8.31;100.00
35023;BME280;21214;44.912;8.204;2023-03-04T09:09:42;99866.34;;;8.38;100.00
35023;BME280;21214;44.912;8.204;2023-03-04T09:12:07;99865.88;;;8.44;100.00
35023;BME280;21214;44.912;8.204;2023-03-04T09:14:33;99858.94;;;8.43;100.00
35023;BME280;21214;44.912;8.204;2023-03-04T09:17:00;99860.47;;;8.57;100.00
35023;BME280;21214;44.912;8.204;2023-03-04T09:19:25;99853.66;;;8.66;100.00
35023;BME280;21214;44.912;8.204;2023-03-04T09:21:52;99854.81;;;8.73;100.00
35023;BME280;21214;44.912;8.204;2023-03-04T09:24:19;99855.16;;;8.79;100.00
35023;BME280;21214;44.912;8.204;2023-03-04T09:26:44;99851.63;;;8.90;100.00
35023;BME280;21214;44.912;8.204;2023-03-04T09:29:10;99855.50;;;8.86;100.00
35023;BME280;21214;44.912;8.204;2023-03-04T09:31:35;99852.13;;;8.95;100.00
35023;BME280;21214;44.912;8.204;2023-03-04T09:34:00;99849.44;;;9.06;100.00
35023;BME280;21214;44.912;8.204;2023-03-04T09:36:26;99849.41;;;9.17;100.00
35023;BME280;21214;44.912;8.204;2023-03-04T09:38:51;99850.56;;;9.24;100.00
35023;BME280;21214;44.912;8.204;2023-03-04T09:43:45;99851.47;;;9.34;100.00
35023;BME280;21214;44.912;8.204;2023-03-04T09:46:12;99849.00;;;9.42;100.00
35023;BME280;21214;44.912;8.204;2023-03-04T09:48:47;99846.34;;;9.54;100.00
35023;BME280;21214;44.912;8.204;2023-03-04T09:56:22;99848.81;;;9.76;100.00
35023;BME280;21214;44.912;8.204;2023-03-04T10:01:19;99837.34;;;9.86;100.00
35023;BME280;21214;44.912;8.204;2023-03-04T10:06:38;99831.16;;;9.97;100.00
35023;BME280;21214;44.912;8.204;2023-03-04T10:09:11;99832.88;;;10.08;100.00
35023;BME280;21214;44.912;8.204;2023-03-04T10:16:34;99829.38;;;10.28;100.00
35023;BME280;21214;44.912;8.204;2023-03-04T10:19:10;99824.28;;;10.36;100.00
35023;BME280;21214;44.912;8.204;2023-03-04T10:21:42;99816.38;;;10.46;100.00
35023;BME280;21214;44.912;8.204;2023-03-04T10:24:16;99819.19;;;10.54;100.00
35023;BME280;21214;44.912;8.204;2023-03-04T10:26:47;99821.53;;;10.66;100.00
35023;BME280;21214;44.912;8.204;2023-03-04T10:29:17;99816.53;;;10.73;100.00
35023;BME280;21214;44.912;8.204;2023-03-04T10:31:43;99817.66;;;10.80;100.00
35023;BME280;21214;44.912;8.204;2023-03-04T10:34:12;99817.25;;;10.85;100.00
35023;BME280;21214;44.912;8.204;2023-03-04T10:36:41;99814.34;;;10.88;100.00
35023;BME280;21214;44.912;8.204;2023-03-04T10:39:15;99811.28;;;10.92;100.00
35023;BME280;21214;44.912;8.204;2023-03-04T10:41:42;99808.38;;;10.95;100.00
35023;BME280;21214;44.912;8.204;2023-03-04T10:46:36;99804.88;;;11.04;100.00
35023;BME280;21214;44.912;8.204;2023-03-04T10:49:02;99800.03;;;11.09;100.00
35023;BME280;21214;44.912;8.204;2023-03-04T10:51:28;99789.88;;;11.15;100.00
35023;BME280;21214;44.912;8.204;2023-03-04T10:53:57;99790.84;;;11.23;100.00
35023;BME280;21214;44.912;8.204;2023-03-04T11:01:42;99781.78;;;11.35;100.00
35023;BME280;21214;44.912;8.204;2023-03-04T11:04:16;99773.69;;;11.46;100.00
35023;BME280;21214;44.912;8.204;2023-03-04T11:06:45;99773.38;;;11.59;100.00
35023;BME280;21214;44.912;8.204;2023-03-04T11:09:21;99767.91;;;11.70;100.00
35023;BME280;21214;44.912;8.204;2023-03-04T11:11:47;99769.44;;;11.82;100.00
35023;BME280;21214;44.912;8.204;2023-03-04T11:14:20;99770.66;;;11.88;100.00
35023;BME280;21214;44.912;8.204;2023-03-04T11:17:38;99761.34;;;11.84;100.00
35023;BME280;21214;44.912;8.204;2023-03-04T11:19:37;99758.56;;;11.85;98.25
35023;BME280;21214;44.912;8.204;2023-03-04T11:22:03;99752.97;;;11.88;97.98
35023;BME280;21214;44.912;8.204;2023-03-04T11:24:28;99748.78;;;11.96;98.85
35023;BME280;21214;44.912;8.204;2023-03-04T11:29:37;99740.72;;;12.15;95.41
35023;BME280;21214;44.912;8.204;2023-03-04T11:32:19;99734.56;;;12.24;93.18
35023;BME280;21214;44.912;8.204;2023-03-04T11:35:05;99726.84;;;12.30;93.95
35023;BME280;21214;44.912;8.204;2023-03-04T11:37:46;99732.06;;;12.40;91.72
35023;BME280;21214;44.912;8.204;2023-03-04T11:40:28;99727.84;;;12.47;91.47
35023;BME280;21214;44.912;8.204;2023-03-04T11:45:28;99708.16;;;12.67;92.57
35023;BME280;21214;44.912;8.204;2023-03-04T11:48:00;99715.69;;;12.72;90.35
35023;BME280;21214;44.912;8.204;2023-03-04T11:56:03;99691.94;;;13.06;86.09
35023;BME280;21214;44.912;8.204;2023-03-04T12:01:09;99690.41;;;13.21;83.67
35023;BME280;21214;44.912;8.204;2023-03-04T12:03:46;99680.84;;;13.28;83.00
35023;BME280;21214;44.912;8.204;2023-03-04T12:19:34;99653.94;;;13.99;79.02
35023;BME280;21214;44.912;8.204;2023-03-04T12:27:20;99628.81;;;14.19;73.84
35023;BME280;21214;44.912;8.204;2023-03-04T12:32:38;99616.91;;;14.48;72.26
35023;BME280;21214;44.912;8.204;2023-03-04T12:35:17;99615.22;;;14.63;72.25
35023;BME280;21214;44.912;8.204;2023-03-04T12:37:52;99600.94;;;14.72;72.46
35023;BME280;21214;44.912;8.204;2023-03-04T12:43:20;99590.25;;;15.04;72.28
35023;BME280;21214;44.912;8.204;2023-03-04T12:46:05;99587.88;;;15.18;70.37
35023;BME280;21214;44.912;8.204;2023-03-04T12:48:40;99588.72;;;15.18;67.44
35023;BME280;21214;44.912;8.204;2023-03-04T12:51:16;99581.44;;;15.12;67.13
35023;BME280;21214;44.912;8.204;2023-03-04T12:56:21;99571.78;;;15.11;65.71
35023;BME280;21214;44.912;8.204;2023-03-04T12:58:47;99565.28;;;15.22;66.04
35023;BME280;21214;44.912;8.204;2023-03-04T13:01:23;99570.41;;;15.31;66.61
35023;BME280;21214;44.912;8.204;2023-03-04T13:04:04;99556.84;;;15.49;66.00
35023;BME280;21214;44.912;8.204;2023-03-04T13:09:09;99552.06;;;15.75;64.97
35023;BME280;21214;44.912;8.204;2023-03-04T13:11:44;99557.69;;;15.80;63.74
35023;BME280;21214;44.912;8.204;2023-03-04T13:16:48;99540.06;;;15.79;62.79
35023;BME280;21214;44.912;8.204;2023-03-04T13:21:58;99539.72;;;15.82;62.98
35023;BME280;21214;44.912;8.204;2023-03-04T13:29:52;99529.88;;;16.28;62.42
35023;BME280;21214;44.912;8.204;2023-03-04T13:32:36;99525.59;;;16.42;62.14
35023;BME280;21214;44.912;8.204;2023-03-04T13:35:22;99519.06;;;16.45;62.50
35023;BME280;21214;44.912;8.204;2023-03-04T13:37:57;99525.72;;;16.49;63.12
35023;BME280;21214;44.912;8.204;2023-03-04T13:40:23;99512.81;;;16.60;63.42
35023;BME280;21214;44.912;8.204;2023-03-04T13:42:56;99518.75;;;16.62;62.48
35023;BME280;21214;44.912;8.204;2023-03-04T13:45:41;99515.94;;;16.78;61.53
35023;BME280;21214;44.912;8.204;2023-03-04T13:48:07;99509.22;;;16.83;60.25
35023;BME280;21214;44.912;8.204;2023-03-04T13:50:47;99513.56;;;16.84;61.08
35023;BME280;21214;44.912;8.204;2023-03-04T13:53:21;99509.50;;;16.88;61.66
35023;BME280;21214;44.912;8.204;2023-03-04T13:58:29;99500.47;;;17.03;62.03
35023;BME280;21214;44.912;8.204;2023-03-04T14:00:54;99496.78;;;17.19;61.85
35023;BME280;21214;44.912;8.204;2023-03-04T14:03:23;99495.22;;;17.25;62.63
35023;BME280;21214;44.912;8.204;2023-03-04T14:08:34;99493.16;;;17.27;62.04
35023;BME280;21214;44.912;8.204;2023-03-04T14:10:59;99485.75;;;17.22;60.93
35023;BME280;21214;44.912;8.204;2023-03-04T14:13:25;99489.28;;;17.08;61.05
35023;BME280;21214;44.912;8.204;2023-03-04T14:15:54;99478.69;;;17.00;62.29
35023;BME280;21214;44.912;8.204;2023-03-04T14:18:20;99483.69;;;16.88;62.25
35023;BME280;21214;44.912;8.204;2023-03-04T14:20:48;99476.06;;;16.70;62.75
35023;BME280;21214;44.912;8.204;2023-03-04T14:23:24;99478.13;;;16.46;63.63
35023;BME280;21214;44.912;8.204;2023-03-04T14:25:51;99465.81;;;16.30;64.11
35023;BME280;21214;44.912;8.204;2023-03-04T14:28:17;99463.59;;;16.19;64.58